Time;durP1;ratioP1;P1;durP2;ratioP2;P2;SDS_P1;SDS_P2;PMS_P1;PMS_P2;Temp;Humidity;BMP_temperature;BMP_pressure;BME280_temperature;BME280_humidity;BME280_pressure;Samples;Min_cycle;Max_cycle;Signal;HPM_P1;HPM_P2
2023/08/01 00:01:17;;;;;;;0.82;0.60;;;;;;;;;;10171216;29;20052;-93
2023/08/01 00:06:24;;;;;;;0.77;0.70;;;;;;;;;;10175722;29;20056;-94
2023/08/01 00:11:31;;;;;;;1.02;0.68;;;;;;;;;;10171794;29;20059;-94
2023/08/01 00:16:38;;;;;;;0.82;0.60;;;;;;;;;;10167588;29;20048;-92
2023/08/01 00:21:43;;;;;;;0.75;0.63;;;;;;;;;;10164289;29;20052;-93
2023/08/01 00:26:48;;;;;;;0.52;0.47;;;;;;;;;;10159956;29;20052;-93
2023/08/01 00:31:54;;;;;;;1.80;0.63;;;;;;;;;;10171924;29;20048;-96
2023/08/01 00:37:00;;;;;;;1.02;0.50;;;;;;;;;;10169891;29;20048;-92
2023/08/01 00:42:04;;;;;;;0.50;0.50;;;;;;;;;;10171432;29;20048;-92
2023/08/01 00:47:09;;;;;;;0.98;0.65;;;;;;;;;;10152552;29;20083;-92
2023/08/01 00:52:13;;;;;;;0.40;0.40;;;;;;;;;;10152923;29;20059;-91
2023/08/01 00:57:16;;;;;;;0.82;0.40;;;;;;;;;;10172899;29;20119;-91
2023/08/01 01:02:21;;;;;;;0.75;0.40;;;;;;;;;;10173822;29;20059;-90
2023/08/01 01:07:26;;;;;;;0.20;0.20;;;;;;;;;;10169705;29;20056;-91
2023/08/01 01:12:31;;;;;;;0.30;0.30;;;;;;;;;;10154199;29;20053;-91
2023/08/01 01:17:37;;;;;;;0.70;0.40;;;;;;;;;;10169422;29;20318;-91
2023/08/01 01:22:43;;;;;;;0.57;0.43;;;;;;;;;;10164085;29;20055;-92
2023/08/01 01:27:50;;;;;;;0.38;0.38;;;;;;;;;;10166733;29;20062;-94
2023/08/01 01:32:54;;;;;;;0.75;0.60;;;;;;;;;;10193741;29;20365;-93
2023/08/01 01:38:03;;;;;;;1.02;0.50;;;;;;;;;;10167987;29;20060;-92
2023/08/01 01:43:07;;;;;;;0.32;0.32;;;;;;;;;;10167764;29;20131;-94
2023/08/01 01:48:10;;;;;;;0.68;0.43;;;;;;;;;;10197448;29;20094;-95
2023/08/01 01:53:15;;;;;;;0.40;0.30;;;;;;;;;;10180520;29;20507;-95
2023/08/01 01:58:19;;;;;;;1.10;0.40;;;;;;;;;;10166984;29;20054;-92
2023/08/01 02:03:23;;;;;;;0.75;0.50;;;;;;;;;;10170064;29;20084;-93
2023/08/01 02:08:28;;;;;;;0.43;0.40;;;;;;;;;;10177717;29;20066;-93
2023/08/01 02:13:34;;;;;;;0.98;0.30;;;;;;;;;;10186096;29;20056;-93
2023/08/01 02:18:38;;;;;;;0.50;0.50;;;;;;;;;;10187941;29;20052;-92
2023/08/01 02:23:43;;;;;;;0.30;0.30;;;;;;;;;;10155762;29;20052;-93
2023/08/01 02:28:47;;;;;;;0.30;0.20;;;;;;;;;;10165822;29;20687;-92
2023/08/01 02:33:51;;;;;;;0.40;0.40;;;;;;;;;;10200522;29;20084;-93
2023/08/01 02:38:58;;;;;;;0.77;0.30;;;;;;;;;;10192684;29;20081;-95
2023/08/01 02:44:04;;;;;;;3.00;0.40;;;;;;;;;;10175619;29;20052;-93
2023/08/01 02:49:07;;;;;;;0.35;0.35;;;;;;;;;;10158586;29;20052;-95
2023/08/01 02:54:13;;;;;;;0.82;0.30;;;;;;;;;;10177871;29;20044;-94
2023/08/01 02:59:18;;;;;;;1.20;0.30;;;;;;;;;;10173151;29;20075;-93
2023/08/01 03:04:22;;;;;;;0.30;0.30;;;;;;;;;;10169136;29;20056;-93
2023/08/01 03:09:35;;;;;;;0.22;0.20;;;;;;;;;;10162268;29;20055;-90
2023/08/01 03:14:43;;;;;;;0.40;0.40;;;;;;;;;;10148804;29;20044;-90
2023/08/01 03:19:47;;;;;;;0.60;0.40;;;;;;;;;;10164186;29;20048;-91
2023/08/01 03:24:52;;;;;;;0.50;0.30;;;;;;;;;;10167813;29;20476;-90
2023/08/01 03:29:56;;;;;;;1.20;0.32;;;;;;;;;;10167951;29;20504;-90
2023/08/01 03:34:59;;;;;;;0.30;0.20;;;;;;;;;;10168187;29;20052;-90
2023/08/01 03:40:08;;;;;;;0.50;0.30;;;;;;;;;;10159861;29;20075;-91
2023/08/01 03:45:12;;;;;;;0.20;0.20;;;;;;;;;;10151761;29;20140;-91
2023/08/01 03:50:18;;;;;;;0.25;0.20;;;;;;;;;;10160778;29;20052;-89
2023/08/01 03:55:26;;;;;;;1.38;0.30;;;;;;;;;;10158698;29;20724;-91
2023/08/01 04:00:32;;;;;;;0.22;0.17;;;;;;;;;;10156090;29;20127;-89
2023/08/01 04:05:36;;;;;;;0.40;0.10;;;;;;;;;;10149130;29;20484;-91
2023/08/01 04:10:41;;;;;;;0.20;0.13;;;;;;;;;;10178019;29;20368;-91
2023/08/01 04:15:44;;;;;;;1.45;0.35;;;;;;;;;;10153352;29;20052;-89
2023/08/01 04:20:48;;;;;;;0.30;0.20;;;;;;;;;;10161526;29;20045;-88
2023/08/01 04:25:53;;;;;;;1.85;0.30;;;;;;;;;;10171505;29;20045;-89
2023/08/01 04:30:57;;;;;;;0.40;0.30;;;;;;;;;;10177946;29;20040;-89
2023/08/01 04:36:00;;;;;;;0.10;0.10;;;;;;;;;;10180921;29;20056;-91
2023/08/01 04:41:05;;;;;;;0.20;0.20;;;;;;;;;;10162590;29;20045;-90
2023/08/01 04:46:09;;;;;;;0.40;0.20;;;;;;;;;;10182356;29;20520;-92
2023/08/01 04:51:13;;;;;;;1.27;0.55;;;;;;;;;;10183827;29;20104;-91
2023/08/01 04:56:21;;;;;;;0.55;0.22;;;;;;;;;;10150627;29;20052;-91
2023/08/01 05:01:25;;;;;;;1.27;0.40;;;;;;;;;;10153737;29;20048;-91
2023/08/01 05:06:29;;;;;;;0.95;0.20;;;;;;;;;;10155602;29;20084;-92
2023/08/01 05:11:39;;;;;;;1.00;0.10;;;;;;;;;;10152494;29;20564;-91
2023/08/01 05:16:43;;;;;;;0.10;0.10;;;;;;;;;;10150628;29;20048;-91
2023/08/01 05:21:52;;;;;;;0.10;0.10;;;;;;;;;;10142651;29;20071;-91
2023/08/01 05:27:00;;;;;;;0.43;0.10;;;;;;;;;;10152643;29;20133;-90
2023/08/01 05:32:07;;;;;;;0.10;0.03;;;;;;;;;;10150981;29;20048;-92
2023/08/01 05:37:12;;;;;;;0.43;0.10;;;;;;;;;;10148956;29;20052;-91
2023/08/01 05:42:22;;;;;;;0.00;0.00;;;;;;;;;;10148297;29;20068;-90
2023/08/01 05:47:25;;;;;;;0.35;0.10;;;;;;;;;;10137585;29;20048;-87
2023/08/01 05:52:33;;;;;;;0.20;0.10;;;;;;;;;;10161273;29;20043;-88
2023/08/01 05:57:38;;;;;;;0.10;0.10;;;;;;;;;;10144537;29;20720;-88
2023/08/01 06:02:55;;;;;;;1.65;0.20;;;;;;;;;;10146805;29;20183;-87
2023/08/01 06:07:59;;;;;;;0.15;0.15;;;;;;;;;;10165362;23;20083;-85
2023/08/01 06:13:08;;;;;;;1.33;0.10;;;;;;;;;;10149841;29;20059;-84
2023/08/01 06:23:52;;;;;;;0.20;0.20;;;;;;;;;;10148790;29;20065;-85
2023/08/01 06:29:07;;;;;;;0.35;0.20;;;;;;;;;;10132355;29;20426;-85
2023/08/01 06:34:17;;;;;;;0.28;0.20;;;;;;;;;;10143043;29;20075;-85
2023/08/01 06:39:33;;;;;;;1.00;0.20;;;;;;;;;;10136110;29;20522;-86
2023/08/01 06:45:26;;;;;;;;;;;;;;;;;;;;;
2023/08/01 06:57:10;;;;;;;0.10;0.10;;;;;;;;;;10081472;29;20509;-83
2023/08/01 07:02:15;;;;;;;0.20;0.20;;;;;;;;;;10066532;29;20071;-84
2023/08/01 07:07:18;;;;;;;0.83;0.33;;;;;;;;;;10085270;29;20121;-83
2023/08/01 07:12:22;;;;;;;1.23;0.88;;;;;;;;;;10074059;29;20103;-83
2023/08/01 07:17:29;;;;;;;2.25;0.50;;;;;;;;;;10081829;29;20045;-84
2023/08/01 07:22:32;;;;;;;1.83;0.93;;;;;;;;;;10065761;29;20074;-82
2023/08/01 07:27:37;;;;;;;0.80;0.60;;;;;;;;;;10081923;29;20037;-83
2023/08/01 07:32:47;;;;;;;2.05;0.80;;;;;;;;;;10074992;29;20101;-83
2023/08/01 07:37:52;;;;;;;1.17;0.75;;;;;;;;;;10080809;29;20105;-83
2023/08/01 07:42:55;;;;;;;0.50;0.47;;;;;;;;;;10083045;29;20077;-82
2023/08/01 07:48:00;;;;;;;1.08;0.70;;;;;;;;;;10065356;29;20109;-84
2023/08/01 07:53:03;;;;;;;0.77;0.60;;;;;;;;;;10055200;29;20903;-83
2023/08/01 07:58:09;;;;;;;0.80;0.60;;;;;;;;;;10084560;29;20478;-81
2023/08/01 08:03:14;;;;;;;0.60;0.60;;;;;;;;;;10072000;29;20068;-82
2023/08/01 08:08:24;;;;;;;1.55;0.70;;;;;;;;;;10068787;29;20136;-83
2023/08/01 08:13:30;;;;;;;1.20;0.73;;;;;;;;;;10087484;29;20415;-83
2023/08/01 08:18:35;;;;;;;0.50;0.50;;;;;;;;;;10085946;29;20049;-82
2023/08/01 08:23:41;;;;;;;1.55;0.50;;;;;;;;;;10087808;29;20048;-84
2023/08/01 08:28:52;;;;;;;2.13;0.70;;;;;;;;;;10080241;29;20053;-83
2023/08/01 08:33:57;;;;;;;1.20;0.80;;;;;;;;;;10086168;29;20072;-84
2023/08/01 08:39:03;;;;;;;1.10;0.80;;;;;;;;;;10085884;29;20140;-83
2023/08/01 08:44:09;;;;;;;1.92;1.02;;;;;;;;;;10086182;29;20068;-83
2023/08/01 08:49:17;;;;;;;1.13;0.95;;;;;;;;;;10085085;29;20144;-83
2023/08/01 08:54:21;;;;;;;1.63;1.02;;;;;;;;;;10069341;29;20052;-83
2023/08/01 08:59:26;;;;;;;1.88;1.10;;;;;;;;;;10084312;29;20144;-83
2023/08/01 09:04:31;;;;;;;2.03;1.00;;;;;;;;;;10084670;29;20133;-83
2023/08/01 09:09:36;;;;;;;1.65;1.10;;;;;;;;;;10057655;29;20060;-84
2023/08/01 09:14:39;;;;;;;2.85;1.30;;;;;;;;;;10088949;29;20068;-83
2023/08/01 09:19:44;;;;;;;1.90;1.25;;;;;;;;;;10075858;29;20109;-82
2023/08/01 09:24:56;;;;;;;2.03;1.35;;;;;;;;;;10081440;29;20493;-84
2023/08/01 09:30:07;;;;;;;2.67;1.20;;;;;;;;;;10065310;29;20754;-84
2023/08/01 09:35:12;;;;;;;3.58;1.60;;;;;;;;;;10064218;29;20533;-83
2023/08/01 09:40:16;;;;;;;2.95;1.60;;;;;;;;;;10063695;29;20135;-83
2023/08/01 09:45:25;;;;;;;1.73;1.33;;;;;;;;;;10080914;29;20037;-83
2023/08/01 09:50:30;;;;;;;4.95;1.55;;;;;;;;;;10079858;29;20135;-83
2023/08/01 09:55:44;;;;;;;2.42;1.20;;;;;;;;;;10079491;29;20421;-83
2023/08/01 10:00:49;;;;;;;4.18;1.75;;;;;;;;;;10074138;29;20060;-83
2023/08/01 10:05:55;;;;;;;1.88;1.38;;;;;;;;;;10065632;29;20092;-83
2023/08/01 10:11:00;;;;;;;3.10;1.50;;;;;;;;;;10079449;29;20751;-83
2023/08/01 10:16:04;;;;;;;3.43;1.23;;;;;;;;;;10063352;29;20053;-83
2023/08/01 10:21:13;;;;;;;2.10;1.15;;;;;;;;;;10085379;29;20529;-82
2023/08/01 10:26:17;;;;;;;1.80;1.27;;;;;;;;;;10062415;29;20127;-84
2023/08/01 10:31:22;;;;;;;3.20;1.38;;;;;;;;;;10063154;29;20129;-83
2023/08/01 10:36:29;;;;;;;1.63;1.10;;;;;;;;;;10038994;29;20049;-83
2023/08/01 10:41:33;;;;;;;2.90;1.65;;;;;;;;;;10079331;29;20144;-83
2023/08/01 10:46:47;;;;;;;2.95;1.58;;;;;;;;;;10078303;29;20096;-82
2023/08/01 10:51:52;;;;;;;2.72;1.30;;;;;;;;;;10079183;29;20109;-84
2023/08/01 10:56:58;;;;;;;1.23;1.08;;;;;;;;;;10082341;29;20734;-82
2023/08/01 11:02:03;;;;;;;2.40;1.33;;;;;;;;;;10084691;29;20067;-83
2023/08/01 11:07:08;;;;;;;2.88;1.40;;;;;;;;;;10083362;29;20147;-84
2023/08/01 11:12:11;;;;;;;3.17;1.33;;;;;;;;;;10081088;29;20615;-84
2023/08/01 11:17:15;;;;;;;4.15;1.85;;;;;;;;;;10073771;29;20085;-83
2023/08/01 11:22:24;;;;;;;3.67;1.50;;;;;;;;;;10077558;29;20139;-83
2023/08/01 11:27:27;;;;;;;1.60;0.82;;;;;;;;;;10062303;29;20053;-83
2023/08/01 11:32:38;;;;;;;1.85;0.70;;;;;;;;;;10067312;29;20057;-83
2023/08/01 11:37:43;;;;;;;2.85;1.17;;;;;;;;;;10062914;29;20635;-83
2023/08/01 11:42:51;;;;;;;1.63;0.73;;;;;;;;;;10060573;29;20082;-83
2023/08/01 11:47:55;;;;;;;0.80;0.50;;;;;;;;;;10081820;29;20104;-83
2023/08/01 11:53:02;;;;;;;0.93;0.40;;;;;;;;;;10062581;29;20528;-83
2023/08/01 11:58:05;;;;;;;2.15;1.25;;;;;;;;;;10065786;29;20682;-83
2023/08/01 12:03:13;;;;;;;1.02;0.55;;;;;;;;;;10062388;29;20073;-83
2023/08/01 12:08:18;;;;;;;0.50;0.40;;;;;;;;;;10066265;29;20053;-83
2023/08/01 12:13:25;;;;;;;1.17;0.77;;;;;;;;;;10060515;29;20140;-83
2023/08/01 12:18:31;;;;;;;1.63;0.50;;;;;;;;;;10080921;29;20045;-84
2023/08/01 12:23:39;;;;;;;3.05;1.13;;;;;;;;;;10077775;29;20053;-83
2023/08/01 12:28:42;;;;;;;2.97;0.95;;;;;;;;;;10061760;29;20421;-83
2023/08/01 12:33:47;;;;;;;1.77;0.98;;;;;;;;;;10047992;29;20060;-84
2023/08/01 12:38:56;;;;;;;3.53;1.52;;;;;;;;;;10078758;29;20061;-84
2023/08/01 12:43:59;;;;;;;2.75;1.40;;;;;;;;;;10058708;29;20140;-84
2023/08/01 12:49:03;;;;;;;3.33;1.20;;;;;;;;;;10068573;29;21695;-83
2023/08/01 12:54:08;;;;;;;3.05;1.27;;;;;;;;;;10065143;29;20136;-84
2023/08/01 12:59:11;;;;;;;1.48;0.70;;;;;;;;;;10072790;29;20137;-84
2023/08/01 13:04:14;;;;;;;0.82;0.60;;;;;;;;;;10061756;29;20581;-84
2023/08/01 13:09:19;;;;;;;0.98;0.63;;;;;;;;;;10081957;29;20682;-84
2023/08/01 13:14:22;;;;;;;1.23;0.60;;;;;;;;;;10079802;29;20506;-83
2023/08/01 13:19:26;;;;;;;1.05;0.65;;;;;;;;;;10081809;29;20141;-83
2023/08/01 13:24:31;;;;;;;0.93;0.60;;;;;;;;;;10062554;29;20160;-83
2023/08/01 13:29:36;;;;;;;2.10;1.20;;;;;;;;;;10067205;29;20085;-84
2023/08/01 13:34:39;;;;;;;1.90;0.80;;;;;;;;;;10071596;29;20072;-84
2023/08/01 13:39:45;;;;;;;1.58;0.85;;;;;;;;;;10066743;29;20080;-83
2023/08/01 13:44:51;;;;;;;3.63;0.95;;;;;;;;;;10057940;29;20572;-83
2023/08/01 13:49:55;;;;;;;1.63;0.82;;;;;;;;;;10082873;29;20573;-83
2023/08/01 13:54:59;;;;;;;3.05;1.42;;;;;;;;;;10078390;29;20475;-83
2023/08/01 14:00:06;;;;;;;2.25;1.38;;;;;;;;;;10084909;29;20932;-82
2023/08/01 14:05:14;;;;;;;2.53;1.10;;;;;;;;;;10086747;29;20049;-83
2023/08/01 14:10:21;;;;;;;3.00;0.90;;;;;;;;;;10086620;29;20112;-83
2023/08/01 14:15:25;;;;;;;3.65;1.30;;;;;;;;;;10078424;29;20651;-84
2023/08/01 14:20:32;;;;;;;3.20;1.20;;;;;;;;;;10067241;29;20049;-83
2023/08/01 14:25:37;;;;;;;3.05;1.35;;;;;;;;;;10058709;29;20048;-85
2023/08/01 14:30:43;;;;;;;2.17;1.00;;;;;;;;;;10052296;29;20694;-84
2023/08/01 14:35:46;;;;;;;3.08;1.25;;;;;;;;;;10067138;29;20052;-84
2023/08/01 14:40:52;;;;;;;1.63;1.10;;;;;;;;;;10062057;29;20070;-83
2023/08/01 14:46:13;;;;;;;1.23;0.60;;;;;;;;;;10073695;29;20072;-83
2023/08/01 14:51:17;;;;;;;1.55;0.90;;;;;;;;;;10060432;29;20536;-84
2023/08/01 14:56:27;;;;;;;4.00;0.88;;;;;;;;;;10076178;29;20045;-83
2023/08/01 15:01:31;;;;;;;2.35;0.90;;;;;;;;;;10075893;29;20143;-82
2023/08/01 15:06:37;;;;;;;2.88;0.82;;;;;;;;;;10064056;29;20053;-83
2023/08/01 15:11:42;;;;;;;2.42;1.00;;;;;;;;;;10079579;29;20061;-82
2023/08/01 15:16:45;;;;;;;1.77;0.70;;;;;;;;;;10079980;29;20334;-83
2023/08/01 15:21:49;;;;;;;2.53;0.90;;;;;;;;;;10060338;29;20133;-84
2023/08/01 15:26:53;;;;;;;1.40;0.70;;;;;;;;;;10056582;29;20469;-84
2023/08/01 15:31:57;;;;;;;1.58;0.88;;;;;;;;;;10075004;29;20104;-83
2023/08/01 15:37:00;;;;;;;0.75;0.60;;;;;;;;;;10051826;29;20072;-84
2023/08/01 15:42:07;;;;;;;1.73;0.75;;;;;;;;;;10072332;29;20069;-84
2023/08/01 15:47:10;;;;;;;1.20;0.87;;;;;;;;;;10077588;29;20057;-84
2023/08/01 15:52:14;;;;;;;1.55;0.90;;;;;;;;;;10074146;29;20089;-83
2023/08/01 15:57:19;;;;;;;1.58;0.77;;;;;;;;;;10080147;29;20080;-83
2023/08/01 16:02:22;;;;;;;3.40;1.10;;;;;;;;;;10062145;29;20117;-84
2023/08/01 16:07:26;;;;;;;2.83;0.80;;;;;;;;;;10069947;29;20705;-82
2023/08/01 16:12:30;;;;;;;2.53;0.90;;;;;;;;;;10073079;29;20056;-83
2023/08/01 16:17:35;;;;;;;2.28;0.82;;;;;;;;;;10075753;29;20049;-84
2023/08/01 16:22:39;;;;;;;1.38;0.90;;;;;;;;;;10063208;29;20065;-84
2023/08/01 16:27:46;;;;;;;3.17;0.90;;;;;;;;;;10063240;29;20148;-84
2023/08/01 16:32:50;;;;;;;1.95;1.00;;;;;;;;;;10087599;29;20148;-83
2023/08/01 16:37:53;;;;;;;3.10;0.88;;;;;;;;;;10083976;29;20053;-83
2023/08/01 16:42:59;;;;;;;3.65;1.35;;;;;;;;;;10061665;29;20064;-83
2023/08/01 16:48:03;;;;;;;1.52;1.13;;;;;;;;;;10077570;29;20046;-81
2023/08/01 16:53:06;;;;;;;1.42;0.80;;;;;;;;;;10066128;29;20218;-83
2023/08/01 16:58:12;;;;;;;2.67;1.00;;;;;;;;;;10076322;29;20057;-83
2023/08/01 17:03:15;;;;;;;1.23;0.75;;;;;;;;;;10077045;29;20082;-85
2023/08/01 17:08:19;;;;;;;2.40;0.82;;;;;;;;;;10100158;29;20594;-84
2023/08/01 17:13:24;;;;;;;4.00;1.15;;;;;;;;;;10098958;29;20055;-85
2023/08/01 17:18:27;;;;;;;1.77;1.00;;;;;;;;;;10079600;29;20080;-85
2023/08/01 17:23:31;;;;;;;2.83;1.00;;;;;;;;;;10083483;29;20156;-82
2023/08/01 17:28:36;;;;;;;2.78;1.00;;;;;;;;;;10086243;29;20254;-83
2023/08/01 17:33:40;;;;;;;3.05;0.95;;;;;;;;;;10077583;29;20129;-84
2023/08/01 17:38:43;;;;;;;2.95;0.77;;;;;;;;;;10079543;29;20060;-84
2023/08/01 17:43:48;;;;;;;1.65;1.00;;;;;;;;;;10061888;29;20152;-84
2023/08/01 17:48:52;;;;;;;3.05;1.10;;;;;;;;;;10083632;29;20097;-84
2023/08/01 17:53:58;;;;;;;2.40;1.00;;;;;;;;;;10061678;29;20049;-85
2023/08/01 17:59:03;;;;;;;1.77;0.98;;;;;;;;;;10086096;29;20690;-83
2023/08/01 18:04:06;;;;;;;1.65;0.90;;;;;;;;;;10076863;29;20080;-83
2023/08/01 18:09:10;;;;;;;2.63;1.00;;;;;;;;;;10078498;29;20064;-83
2023/08/01 18:14:15;;;;;;;1.98;1.08;;;;;;;;;;10060200;29;20041;-84
2023/08/01 18:19:19;;;;;;;2.65;1.10;;;;;;;;;;10079452;29;20548;-83
2023/08/01 18:24:22;;;;;;;1.85;0.90;;;;;;;;;;10067250;29;20049;-83
2023/08/01 18:29:27;;;;;;;2.85;0.82;;;;;;;;;;10064026;29;20053;-83
2023/08/01 18:34:31;;;;;;;2.42;0.90;;;;;;;;;;10060843;29;20045;-84
2023/08/01 18:39:34;;;;;;;2.42;1.10;;;;;;;;;;10063056;29;20053;-83
2023/08/01 18:44:39;;;;;;;2.63;1.08;;;;;;;;;;10061935;29;20053;-83
2023/08/01 18:49:43;;;;;;;4.25;0.98;;;;;;;;;;10080009;29;20662;-83
2023/08/01 18:54:50;;;;;;;2.75;1.05;;;;;;;;;;10060339;29;20136;-83
2023/08/01 18:59:55;;;;;;;3.17;1.30;;;;;;;;;;10079411;29;20044;-84
2023/08/01 19:04:58;;;;;;;2.17;0.90;;;;;;;;;;10064462;29;20057;-83
2023/08/01 19:10:02;;;;;;;1.77;0.85;;;;;;;;;;10069299;29;20048;-83
2023/08/01 19:15:08;;;;;;;2.00;0.93;;;;;;;;;;10075544;29;20053;-83
2023/08/01 19:20:12;;;;;;;2.35;0.90;;;;;;;;;;10059085;29;20247;-83
2023/08/01 19:25:15;;;;;;;2.63;0.80;;;;;;;;;;10057518;29;20060;-83
2023/08/01 19:30:20;;;;;;;2.00;0.73;;;;;;;;;;10077471;29;20045;-83
2023/08/01 19:35:24;;;;;;;1.45;0.90;;;;;;;;;;10072727;29;20144;-83
2023/08/01 19:40:28;;;;;;;3.13;1.02;;;;;;;;;;10063558;29;20045;-83
2023/08/01 19:45:35;;;;;;;2.22;0.70;;;;;;;;;;10075245;29;20045;-84
2023/08/01 19:50:39;;;;;;;0.90;0.50;;;;;;;;;;10057558;29;20137;-82
2023/08/01 19:55:42;;;;;;;1.30;0.40;;;;;;;;;;10063340;29;20053;-83
2023/08/01 20:00:48;;;;;;;0.77;0.40;;;;;;;;;;10085759;29;20064;-82
2023/08/01 20:05:57;;;;;;;2.95;0.80;;;;;;;;;;10071895;29;20410;-82
2023/08/01 20:11:01;;;;;;;0.65;0.50;;;;;;;;;;10071964;29;20593;-83
2023/08/01 20:16:07;;;;;;;1.55;0.60;;;;;;;;;;10073318;29;20402;-82
2023/08/01 20:21:10;;;;;;;2.37;0.73;;;;;;;;;;10072186;29;20111;-82
2023/08/01 20:26:14;;;;;;;1.20;0.40;;;;;;;;;;10068573;29;20052;-82
2023/08/01 20:31:18;;;;;;;1.95;0.70;;;;;;;;;;10088153;29;20076;-83
2023/08/01 20:36:21;;;;;;;1.73;0.60;;;;;;;;;;10073907;29;20502;-84
2023/08/01 20:41:25;;;;;;;0.68;0.43;;;;;;;;;;10082088;29;20053;-83
2023/08/01 20:46:33;;;;;;;1.35;0.40;;;;;;;;;;10097365;29;20466;-83
2023/08/01 20:51:36;;;;;;;0.90;0.30;;;;;;;;;;10082768;29;20049;-84
2023/08/01 20:56:40;;;;;;;0.95;0.43;;;;;;;;;;10101533;29;20702;-83
2023/08/01 21:01:44;;;;;;;1.15;0.50;;;;;;;;;;10081471;29;20046;-83
2023/08/01 21:06:48;;;;;;;0.65;0.47;;;;;;;;;;10079852;29;20067;-83
2023/08/01 21:11:51;;;;;;;1.02;0.40;;;;;;;;;;10082685;29;20052;-83
2023/08/01 21:16:56;;;;;;;2.55;0.50;;;;;;;;;;10095854;29;20139;-84
2023/08/01 21:21:59;;;;;;;1.85;0.60;;;;;;;;;;10099543;29;20132;-84
2023/08/01 21:27:02;;;;;;;1.90;0.50;;;;;;;;;;10079482;29;20071;-84
2023/08/01 21:32:08;;;;;;;1.23;0.60;;;;;;;;;;10095413;29;20784;-84
2023/08/01 21:37:11;;;;;;;2.35;0.57;;;;;;;;;;10096834;29;20049;-84
2023/08/01 21:42:15;;;;;;;3.03;0.90;;;;;;;;;;10099404;29;20068;-84
2023/08/01 21:55:02;;;;;;;1.13;0.63;;;;;;;;;;10174392;29;20044;-91
2023/08/01 22:00:14;;;;;;;1.52;0.60;;;;;;;;;;10194174;29;20466;-91
2023/08/01 22:05:18;;;;;;;1.08;0.60;;;;;;;;;;10176384;29;20055;-91
2023/08/01 22:10:31;;;;;;;0.95;0.50;;;;;;;;;;10171221;29;20127;-90
2023/08/01 22:15:37;;;;;;;2.25;0.90;;;;;;;;;;10171661;29;20527;-92
2023/08/01 22:20:42;;;;;;;4.05;1.38;;;;;;;;;;10162659;29;20789;-91
2023/08/01 22:25:53;;;;;;;3.47;1.33;;;;;;;;;;10176882;29;20072;-88
2023/08/01 22:31:01;;;;;;;2.55;0.93;;;;;;;;;;10145381;29;20055;-89
2023/08/01 22:36:12;;;;;;;2.25;0.77;;;;;;;;;;10149405;29;20048;-89
2023/08/01 22:41:16;;;;;;;1.33;0.77;;;;;;;;;;10156566;29;20518;-89
2023/08/01 22:46:22;;;;;;;1.63;0.70;;;;;;;;;;10144854;29;20393;-89
2023/08/01 22:51:28;;;;;;;1.58;0.73;;;;;;;;;;10148489;29;20078;-90
2023/08/01 22:56:32;;;;;;;1.60;0.70;;;;;;;;;;10145585;29;20632;-89
2023/08/01 23:01:37;;;;;;;1.58;0.70;;;;;;;;;;10146806;29;20044;-90
2023/08/01 23:06:40;;;;;;;1.50;0.70;;;;;;;;;;10147642;29;20078;-89
2023/08/01 23:11:44;;;;;;;2.00;0.70;;;;;;;;;;10146048;29;20076;-88
2023/08/01 23:16:53;;;;;;;1.30;0.70;;;;;;;;;;10146761;29;20052;-89
2023/08/01 23:21:57;;;;;;;0.80;0.60;;;;;;;;;;10148408;29;20512;-88
2023/08/01 23:27:00;;;;;;;1.95;0.60;;;;;;;;;;10144717;29;20048;-88
2023/08/01 23:32:06;;;;;;;1.88;0.90;;;;;;;;;;10165065;29;20063;-89
2023/08/01 23:37:10;;;;;;;1.60;0.57;;;;;;;;;;10147608;29;20135;-89
2023/08/01 23:42:14;;;;;;;1.77;0.85;;;;;;;;;;10149159;29;20056;-90
2023/08/01 23:47:20;;;;;;;1.73;0.95;;;;;;;;;;10163718;29;20419;-90
2023/08/01 23:52:23;;;;;;;3.00;1.20;;;;;;;;;;10162531;29;20048;-91
2023/08/01 23:57:27;;;;;;;2.28;1.17;;;;;;;;;;10150120;29;20151;-91
